Station Historical Data
Daily Summary for June 2, 2017 Units:  Metric    English   Both
« Previous Day
Next Day »
Daily Weekly Monthly Yearly Custom
  High: Low: Average:
Temperature: 19.6 °C 7.5 °C 14.2 °C
Dew Point: 9.8 °C 3.8 °C 7.1 °C
Humidity: 88% 38% 65%
Wind Speed: 22.5km/h 0km/h 5.6km/h
Wind Gust: 35.4km/h - -
Wind- - West
Pressure: 1017.8 hPa 1014.1 hPa -
Precipitation: 0 mm    
Historical Graphs
 
 
Tabular Data for June 2, 2017
Time Temperature Dew Point Pressure Wind Wind Speed Wind Gust Humidity Rainfall Rate (Hourly)
00:04 12.3 °C 8.6 °C 1015.1 hPa Calm     78% 0 mm
00:09 12.3 °C 8.7 °C 1015.1 hPa Calm     79% 0 mm
00:14 12 °C 8.4 °C 1015.1 hPa Calm     79% 0 mm
00:19 11.8 °C 8.4 °C 1015.1 hPa Calm     80% 0 mm
00:24 11.6 °C 8.3 °C 1015.1 hPa Calm     80% 0 mm
00:29 11.3 °C 8.2 °C 1015.1 hPa Calm     81% 0 mm
00:34 11.2 °C 8 °C 1015.1 hPa Calm     81% 0 mm
00:39 11.3 °C 8.1 °C 1014.8 hPa Calm     81% 0 mm
00:44 11.3 °C 8.3 °C 1014.8 hPa Calm     82% 0 mm
00:49 11.2 °C 8 °C 1014.8 hPa Calm     81% 0 mm
00:54 11.1 °C 8.2 °C 1014.8 hPa Calm     82% 0 mm
00:59 10.9 °C 7.8 °C 1014.8 hPa Calm     81% 0 mm
01:04 10.8 °C 7.8 °C 1014.8 hPa Calm     82% 0 mm
01:09 10.5 °C 7.7 °C 1014.8 hPa Calm     83% 0 mm
01:14 10.4 °C 7.8 °C 1014.8 hPa Calm     84% 0 mm
01:19 10.3 °C 7.7 °C 1014.8 hPa Calm     84% 0 mm
01:24 10.3 °C 7.9 °C 1014.8 hPa Calm     85% 0 mm
01:29 10 °C 7.6 °C 1014.8 hPa Calm     85% 0 mm
01:34 9.9 °C 7.7 °C 1014.8 hPa Calm     86% 0 mm
01:39 9.9 °C 7.7 °C 1014.8 hPa Calm     86% 0 mm
01:44 10.1 °C 7.9 °C 1014.8 hPa Calm     86% 0 mm
01:49 10.2 °C 8 °C 1014.8 hPa Calm     86% 0 mm
01:54 10.1 °C 7.9 °C 1014.8 hPa Calm     86% 0 mm
01:59 10 °C 7.8 °C 1014.8 hPa Calm     86% 0 mm
02:04 9.9 °C 7.7 °C 1014.4 hPa Calm   1.6 km/h 86% 0 mm
02:09 9.7 °C 7.5 °C 1014.4 hPa Calm     86% 0 mm
02:14 9.6 °C 7.3 °C 1014.4 hPa Calm     86% 0 mm
02:19 9.5 °C 7.4 °C 1014.4 hPa Calm     87% 0 mm
02:24 9.6 °C 7.3 °C 1014.4 hPa Calm   3.2 km/h 86% 0 mm
02:29 9.7 °C 7.3 °C 1014.4 hPa Calm   3.2 km/h 85% 0 mm
02:34 9.8 °C 7.3 °C 1014.4 hPa WSW 1.6 km/h 6.4 km/h 84% 0 mm
02:39 9.9 °C 7.1 °C 1014.4 hPa WSW 1.6 km/h 6.4 km/h 83% 0 mm
02:44 9.8 °C 7.1 °C 1014.4 hPa Calm   4.8 km/h 83% 0 mm
02:49 9.8 °C 7 °C 1014.4 hPa SW 1.6 km/h 4.8 km/h 83% 0 mm
02:54 9.7 °C 6.9 °C 1014.4 hPa Calm   3.2 km/h 83% 0 mm
02:59 9.6 °C 6.9 °C 1014.4 hPa Calm   1.6 km/h 83% 0 mm
03:04 9.4 °C 6.7 °C 1014.4 hPa Calm     83% 0 mm
03:09 9.3 °C 6.6 °C 1014.1 hPa Calm     83% 0 mm
03:14 9.2 °C 6.6 °C 1014.4 hPa Calm     84% 0 mm
03:19 9.1 °C 6.5 °C 1014.4 hPa Calm     84% 0 mm
03:24 8.8 °C 6.3 °C 1014.4 hPa Calm     84% 0 mm
03:29 8.8 °C 6.4 °C 1014.4 hPa Calm     85% 0 mm
03:34 8.9 °C 6.5 °C 1014.4 hPa Calm     85% 0 mm
03:39 8.7 °C 6.3 °C 1014.4 hPa Calm     85% 0 mm
03:44 8.6 °C 6.2 °C 1014.1 hPa Calm     85% 0 mm
03:49 8.6 °C 6.2 °C 1014.4 hPa Calm     85% 0 mm
03:54 8.5 °C 6.1 °C 1014.4 hPa Calm     85% 0 mm
03:59 8.4 °C 6.1 °C 1014.4 hPa Calm     85% 0 mm
04:04 8.4 °C 6.2 °C 1014.4 hPa Calm     86% 0 mm
04:09 8.3 °C 6.1 °C 1014.4 hPa Calm     86% 0 mm
04:14 8.3 °C 6.1 °C 1014.1 hPa Calm   3.2 km/h 86% 0 mm
04:19 8.3 °C 6.1 °C 1014.4 hPa Calm   1.6 km/h 86% 0 mm
04:24 8.2 °C 6 °C 1014.1 hPa Calm   1.6 km/h 86% 0 mm
04:29 8.1 °C 5.9 °C 1014.1 hPa Calm     86% 0 mm
04:34 8.1 °C 5.8 °C 1014.1 hPa Calm     86% 0 mm
04:39 8.1 °C 5.9 °C 1014.1 hPa Calm     86% 0 mm
04:44 8.1 °C 5.8 °C 1014.1 hPa Calm     86% 0 mm
04:49 7.9 °C 5.7 °C 1014.4 hPa Calm     86% 0 mm
04:54 7.9 °C 5.8 °C 1014.4 hPa Calm     87% 0 mm
04:59 7.8 °C 5.8 °C 1014.4 hPa Calm     87% 0 mm
05:04 7.7 °C 5.5 °C 1014.4 hPa Calm     86% 0 mm
05:09 7.7 °C 5.7 °C 1014.4 hPa Calm     87% 0 mm
05:14 7.7 °C 5.7 °C 1014.4 hPa Calm     87% 0 mm
05:19 7.6 °C 5.6 °C 1014.8 hPa Calm     87% 0 mm
05:24 7.6 °C 5.6 °C 1014.8 hPa Calm     87% 0 mm
05:29 7.5 °C 5.5 °C 1014.8 hPa Calm     87% 0 mm
05:34 7.6 °C 5.7 °C 1014.8 hPa Calm     88% 0 mm
05:39 7.7 °C 5.8 °C 1014.8 hPa Calm     88% 0 mm
05:44 7.6 °C 5.6 °C 1014.8 hPa Calm     87% 0 mm
05:49 7.6 °C 5.7 °C 1014.8 hPa Calm     88% 0 mm
05:54 7.7 °C 5.8 °C 1014.8 hPa Calm     88% 0 mm
05:59 7.6 °C 5.7 °C 1014.8 hPa Calm     88% 0 mm
06:04 7.7 °C 5.7 °C 1014.8 hPa Calm     87% 0 mm
06:09 7.6 °C 5.7 °C 1015.1 hPa Calm     88% 0 mm
06:14 7.7 °C 5.8 °C 1015.1 hPa Calm     88% 0 mm
06:24 8.2 °C 6.2 °C 1015.5 hPa Calm     87% 0 mm
06:29 8.3 °C 6.1 °C 1015.5 hPa Calm     86% 0 mm
06:34 8.5 °C 6.4 °C 1015.5 hPa Calm     87% 0 mm
06:39 8.9 °C 6.7 °C 1015.5 hPa Calm     86% 0 mm
06:44 9.4 °C 7.2 °C 1015.8 hPa Calm     86% 0 mm
06:49 10 °C 7.6 °C 1015.8 hPa SW 1.6 km/h 3.2 km/h 85% 0 mm
06:54 10.6 °C 8.2 °C 1015.8 hPa WSW 1.6 km/h 4.8 km/h 85% 0 mm
06:59 11.2 °C 8.4 °C 1015.8 hPa West 3.2 km/h 8 km/h 83% 0 mm
07:04 11.8 °C 8.5 °C 1015.8 hPa West 4.8 km/h 8 km/h 80% 0 mm
07:09 12.2 °C 8.7 °C 1015.8 hPa WNW 3.2 km/h 9.7 km/h 79% 0 mm
07:14 12.3 °C 8.2 °C 1015.8 hPa WNW 4.8 km/h 14.5 km/h 76% 0 mm
07:19 12.4 °C 8.3 °C 1015.8 hPa WNW 4.8 km/h 9.7 km/h 76% 0 mm
07:24 12.6 °C 8.3 °C 1015.8 hPa WNW 1.6 km/h 8 km/h 75% 0 mm
07:29 12.7 °C 7.8 °C 1015.8 hPa WNW 6.4 km/h 14.5 km/h 72% 0 mm
07:34 12.8 °C 7.5 °C 1015.8 hPa WNW 8 km/h 16.1 km/h 70% 0 mm
07:39 13.1 °C 7.1 °C 1015.8 hPa WNW 8 km/h 16.1 km/h 67% 0 mm
07:44 13.4 °C 7.4 °C 1015.8 hPa WNW 6.4 km/h 12.9 km/h 67% 0 mm
07:49 13.6 °C 6.4 °C 1015.8 hPa WNW 12.9 km/h 16.1 km/h 62% 0 mm
07:54 13.7 °C 6.3 °C 1016.1 hPa West 8 km/h 14.5 km/h 61% 0 mm
07:59 13.9 °C 6 °C 1016.1 hPa WNW 3.2 km/h 16.1 km/h 59% 0 mm
08:04 14.2 °C 5.8 °C 1016.1 hPa WNW 11.3 km/h 14.5 km/h 57% 0 mm
08:09 14.4 °C 5.7 °C 1016.5 hPa WNW 8 km/h 14.5 km/h 56% 0 mm
08:14 14.4 °C 5.4 °C 1016.1 hPa West 9.7 km/h 20.9 km/h 55% 0 mm
08:19 14.6 °C 5.9 °C 1016.5 hPa NW 6.4 km/h 17.7 km/h 56% 0 mm
08:24 14.6 °C 5.4 °C 1016.5 hPa West 6.4 km/h 16.1 km/h 54% 0 mm
08:29 14.6 °C 5.6 °C 1016.5 hPa NW 4.8 km/h 16.1 km/h 55% 0 mm
08:34 14.9 °C 5.9 °C 1016.5 hPa WNW 6.4 km/h 17.7 km/h 55% 0 mm
08:39 14.7 °C 5.5 °C 1016.8 hPa WNW 8 km/h 19.3 km/h 54% 0 mm
08:44 14.7 °C 6 °C 1016.8 hPa WNW 9.7 km/h 19.3 km/h 56% 0 mm
08:49 15.4 °C 6.4 °C 1016.8 hPa WNW 6.4 km/h 16.1 km/h 55% 0 mm
08:54 15.3 °C 5.5 °C 1016.8 hPa WNW 6.4 km/h 16.1 km/h 52% 0 mm
08:59 15.2 °C 5.7 °C 1016.8 hPa NW 4.8 km/h 20.9 km/h 53% 0 mm
09:04 15.4 °C 5 °C 1016.8 hPa NW 11.3 km/h 20.9 km/h 50% 0 mm
09:09 15.6 °C 5.2 °C 1016.8 hPa WNW 11.3 km/h 14.5 km/h 50% 0 mm
09:14 15.8 °C 5.4 °C 1016.8 hPa WNW 6.4 km/h 12.9 km/h 50% 0 mm
09:19 15.8 °C 5.7 °C 1016.8 hPa North 8 km/h 12.9 km/h 51% 0 mm
09:24 15.6 °C 5.5 °C 1016.8 hPa WNW 6.4 km/h 14.5 km/h 51% 0 mm
09:29 16 °C 5 °C 1016.8 hPa NNE 4.8 km/h 14.5 km/h 48% 0 mm
09:34 16.4 °C 4.2 °C 1016.8 hPa NW 4.8 km/h 14.5 km/h 44% 0 mm
09:39 16.2 °C 4.9 °C 1017.2 hPa NW 6.4 km/h 14.5 km/h 47% 0 mm
09:44 16.1 °C 3.8 °C 1017.2 hPa NW 8 km/h 14.5 km/h 44% 0 mm
09:49 16.3 °C 4.6 °C 1017.2 hPa NW 8 km/h 14.5 km/h 46% 0 mm
09:54 16.3 °C 5.2 °C 1017.2 hPa WNW 8 km/h 17.7 km/h 48% 0 mm
09:59 16.3 °C 5.6 °C 1017.2 hPa NW 8 km/h 17.7 km/h 49% 0 mm
10:04 16.5 °C 5.4 °C 1017.2 hPa NW 6.4 km/h 12.9 km/h 48% 0 mm
10:09 16.4 °C 5.7 °C 1017.2 hPa WNW 8 km/h 11.3 km/h 49% 0 mm
10:14 16.6 °C 7.5 °C 1017.2 hPa NW 4.8 km/h 11.3 km/h 55% 0 mm
10:19 16.9 °C 6.4 °C 1017.2 hPa NW 4.8 km/h 14.5 km/h 50% 0 mm
10:24 16.6 °C 6.4 °C 1017.2 hPa NW 12.9 km/h 14.5 km/h 51% 0 mm
10:29 17.1 °C 6.3 °C 1017.2 hPa NNW 9.7 km/h 14.5 km/h 49% 0 mm
10:34 16.9 °C 5.5 °C 1017.2 hPa NW 6.4 km/h 14.5 km/h 47% 0 mm
10:39 16.9 °C 6.2 °C 1017.2 hPa NNW 6.4 km/h 14.5 km/h 49% 0 mm
10:44 17.3 °C 5.9 °C 1017.2 hPa NNW 6.4 km/h 12.9 km/h 47% 0 mm
10:49 17.5 °C 6.7 °C 1017.2 hPa NNW 4.8 km/h 14.5 km/h 49% 0 mm
10:54 17.4 °C 6.6 °C 1017.2 hPa NW 6.4 km/h 9.7 km/h 49% 0 mm
10:59 17.9 °C 6.8 °C 1017.2 hPa WNW 3.2 km/h 14.5 km/h 48% 0 mm
11:04 17.6 °C 6.2 °C 1017.2 hPa NW 4.8 km/h 17.7 km/h 47% 0 mm
11:09 17.8 °C 6 °C 1017.5 hPa NNW 6.4 km/h 17.7 km/h 46% 0 mm
11:19 17.8 °C 6.3 °C 1017.2 hPa NNW 4.8 km/h 14.5 km/h 47% 0 mm
11:24 18.1 °C 5.3 °C 1017.5 hPa NW 4.8 km/h 16.1 km/h 43% 0 mm
11:29 17.7 °C 5.9 °C 1017.5 hPa NNW 4.8 km/h 16.1 km/h 46% 0 mm
11:34 17.9 °C 5.8 °C 1017.5 hPa WNW 1.6 km/h 11.3 km/h 45% 0 mm
11:39 18.5 °C 5.7 °C 1017.5 hPa WNW 6.4 km/h 19.3 km/h 43% 0 mm
11:44 18.4 °C 5.9 °C 1017.5 hPa WNW 8 km/h 20.9 km/h 44% 0 mm
11:49 18 °C 5.6 °C 1017.5 hPa WNW 12.9 km/h 19.3 km/h 44% 0 mm
11:54 17.8 °C 4.7 °C 1017.5 hPa NW 6.4 km/h 17.7 km/h 42% 0 mm
11:59 18.2 °C 6.7 °C 1017.5 hPa NW 8 km/h 17.7 km/h 47% 0 mm
12:04 18.8 °C 6.6 °C 1017.5 hPa NNW 8 km/h 17.7 km/h 45% 0 mm
12:09 18.6 °C 6.1 °C 1017.5 hPa NW 8 km/h 17.7 km/h 44% 0 mm
12:14 18.4 °C 5.6 °C 1017.5 hPa WNW 9.7 km/h 17.7 km/h 43% 0 mm
12:19 18.6 °C 6.1 °C 1017.5 hPa WNW 9.7 km/h 17.7 km/h 44% 0 mm
12:24 18.6 °C 5.4 °C 1017.5 hPa WNW 11.3 km/h 24.1 km/h 42% 0 mm
12:29 18.2 °C 4.4 °C 1017.5 hPa NW 14.5 km/h 17.7 km/h 40% 0 mm
12:34 18.4 °C 6.9 °C 1017.5 hPa NW 9.7 km/h 17.7 km/h 47% 0 mm
12:39 18.7 °C 4.1 °C 1017.5 hPa WNW 9.7 km/h 25.7 km/h 38% 0 mm
12:44 18.3 °C 3.8 °C 1017.8 hPa WNW 16.1 km/h 25.7 km/h 38% 0 mm
12:49 18.4 °C 4.2 °C 1017.5 hPa North 11.3 km/h 20.9 km/h 39% 0 mm
12:54 18.2 °C 4.3 °C 1017.5 hPa North 6.4 km/h 24.1 km/h 40% 0 mm
12:59 18.6 °C 4.7 °C 1017.5 hPa NW 4.8 km/h 22.5 km/h 40% 0 mm
13:04 18.8 °C 6.3 °C 1017.5 hPa NNE 6.4 km/h 14.5 km/h 44% 0 mm
13:09 18.7 °C 4.4 °C 1017.2 hPa NNW 6.4 km/h 16.1 km/h 39% 0 mm
13:14 19 °C 5.1 °C 1017.5 hPa NW 8 km/h 22.5 km/h 40% 0 mm
13:19 19 °C 6.4 °C 1017.2 hPa NW 9.7 km/h 22.5 km/h 44% 0 mm
13:24 19.5 °C 6.2 °C 1017.2 hPa WNW 8 km/h 20.9 km/h 42% 0 mm
13:29 19.3 °C 5.3 °C 1017.2 hPa WNW 8 km/h 20.9 km/h 40% 0 mm
13:34 19.2 °C 5.2 °C 1017.2 hPa North 4.8 km/h 17.7 km/h 40% 0 mm
13:39 19.6 °C 5.9 °C 1017.2 hPa NW 9.7 km/h 25.7 km/h 41% 0 mm
13:44 18.8 °C 6.3 °C 1017.2 hPa WNW 11.3 km/h 25.7 km/h 44% 0 mm
13:49 18.2 °C 6.9 °C 1017.2 hPa West 9.7 km/h 19.3 km/h 48% 0 mm
13:54 17.6 °C 6.7 °C 1017.2 hPa WSW 8 km/h 17.7 km/h 49% 0 mm
13:59 18.2 °C 7 °C 1017.2 hPa SW 19.3 km/h 27.4 km/h 48% 0 mm
14:04 18.3 °C 6.8 °C 1017.2 hPa SSW 9.7 km/h 20.9 km/h 47% 0 mm
14:09 18.3 °C 6.5 °C 1017.2 hPa SW 11.3 km/h 20.9 km/h 46% 0 mm
14:14 18.7 °C 6.8 °C 1017.2 hPa WSW 16.1 km/h 25.7 km/h 46% 0 mm
14:19 18.2 °C 6.4 °C 1017.2 hPa WSW 11.3 km/h 25.7 km/h 46% 0 mm
14:24 17.8 °C 7.6 °C 1016.8 hPa SW 11.3 km/h 22.5 km/h 51% 0 mm
14:29 18.2 °C 7.3 °C 1016.8 hPa SW 11.3 km/h 20.9 km/h 49% 0 mm
14:34 18.8 °C 7.2 °C 1016.8 hPa WSW 11.3 km/h 20.9 km/h 47% 0 mm
14:39 19.1 °C 8.2 °C 1016.8 hPa SW 11.3 km/h 20.9 km/h 49% 0 mm
14:44 19.1 °C 7.8 °C 1016.8 hPa SW 19.3 km/h 22.5 km/h 48% 0 mm
14:49 18.9 °C 8.8 °C 1016.8 hPa WSW 11.3 km/h 27.4 km/h 52% 0 mm
14:54 18.6 °C 8 °C 1016.8 hPa SW 22.5 km/h 27.4 km/h 50% 0 mm
14:59 18.8 °C 8.1 °C 1016.8 hPa SW 22.5 km/h 29 km/h 50% 0 mm
15:04 18.6 °C 7.7 °C 1016.8 hPa SW 6.4 km/h 24.1 km/h 49% 0 mm
15:09 18.4 °C 7.8 °C 1016.8 hPa SW 14.5 km/h 25.7 km/h 50% 0 mm
15:14 18.6 °C 8.5 °C 1016.8 hPa SW 11.3 km/h 25.7 km/h 52% 0 mm
15:19 18.4 °C 7.8 °C 1016.8 hPa SW 11.3 km/h 24.1 km/h 50% 0 mm
15:24 18.6 °C 7.4 °C 1016.8 hPa WSW 11.3 km/h 24.1 km/h 48% 0 mm
15:29 18.4 °C 8.1 °C 1016.8 hPa West 19.3 km/h 20.9 km/h 51% 0 mm
15:34 18.4 °C 8.1 °C 1016.8 hPa South 12.9 km/h 24.1 km/h 51% 0 mm
15:39 18.2 °C 7.8 °C 1016.8 hPa SSW 4.8 km/h 20.9 km/h 51% 0 mm
15:44 18.6 °C 7.3 °C 1016.8 hPa SW 11.3 km/h 27.4 km/h 48% 0 mm
15:49 18.1 °C 7.2 °C 1016.8 hPa WSW 11.3 km/h 27.4 km/h 49% 0 mm
15:54 18.2 °C 7.3 °C 1016.5 hPa SSW 12.9 km/h 20.9 km/h 49% 0 mm
15:59 18.2 °C 6.7 °C 1016.5 hPa WNW 11.3 km/h 25.7 km/h 47% 0 mm
16:04 18.3 °C 7.4 °C 1016.5 hPa SSW 16.1 km/h 25.7 km/h 49% 0 mm
16:09 18.3 °C 6.4 °C 1016.5 hPa SW 11.3 km/h 22.5 km/h 46% 0 mm
16:14 18.3 °C 7.4 °C 1016.5 hPa WSW 12.9 km/h 22.5 km/h 49% 0 mm
16:19 18.3 °C 7.9 °C 1016.5 hPa WSW 11.3 km/h 22.5 km/h 51% 0 mm
16:24 18 °C 6.8 °C 1016.5 hPa SSW 8 km/h 29 km/h 48% 0 mm
16:29 17.8 °C 7.3 °C 1016.5 hPa WNW 16.1 km/h 22.5 km/h 50% 0 mm
16:34 17.8 °C 7.3 °C 1016.1 hPa WSW 14.5 km/h 29 km/h 50% 0 mm
16:39 17.8 °C 6.9 °C 1016.1 hPa SSW 11.3 km/h 27.4 km/h 49% 0 mm
16:44 17.7 °C 7.7 °C 1016.5 hPa WSW 14.5 km/h 27.4 km/h 52% 0 mm
16:49 18.2 °C 7.8 °C 1016.1 hPa WSW 12.9 km/h 25.7 km/h 51% 0 mm
16:54 17.9 °C 7.9 °C 1016.1 hPa WSW 11.3 km/h 24.1 km/h 52% 0 mm
16:59 18.1 °C 7.8 °C 1016.1 hPa WSW 11.3 km/h 24.1 km/h 51% 0 mm
17:04 18 °C 7.4 °C 1016.1 hPa WSW 11.3 km/h 35.4 km/h 50% 0 mm
17:09 17.6 °C 7.1 °C 1016.1 hPa SW 9.7 km/h 29 km/h 50% 0 mm
17:14 17.4 °C 6.8 °C 1016.1 hPa WSW 14.5 km/h 29 km/h 50% 0 mm
17:19 17.5 °C 7.6 °C 1016.1 hPa SW 17.7 km/h 25.7 km/h 52% 0 mm
17:24 17.6 °C 7.3 °C 1016.1 hPa West 9.7 km/h 32.2 km/h 51% 0 mm
17:29 17.7 °C 7.4 °C 1016.1 hPa SSW 11.3 km/h 19.3 km/h 51% 0 mm
17:34 17.6 °C 7.6 °C 1016.1 hPa South 4.8 km/h 30.6 km/h 52% 0 mm
17:39 17.4 °C 7.2 °C 1016.1 hPa WSW 14.5 km/h 30.6 km/h 51% 0 mm
17:44 17.4 °C 7.4 °C 1016.1 hPa WSW 12.9 km/h 24.1 km/h 52% 0 mm
17:49 17.6 °C 8.1 °C 1016.1 hPa WSW 11.3 km/h 24.1 km/h 54% 0 mm
17:54 17.6 °C 7 °C 1016.1 hPa WSW 11.3 km/h 25.7 km/h 50% 0 mm
17:59 17.4 °C 6.8 °C 1016.1 hPa WNW 8 km/h 22.5 km/h 50% 0 mm
18:04 17.4 °C 6.6 °C 1015.8 hPa SW 17.7 km/h 25.7 km/h 49% 0 mm
18:09 17.3 °C 7.1 °C 1015.8 hPa WSW 12.9 km/h 25.7 km/h 51% 0 mm
18:14 17.3 °C 6.5 °C 1015.8 hPa WSW 12.9 km/h 27.4 km/h 49% 0 mm
18:19 17.3 °C 6.5 °C 1015.8 hPa WSW 12.9 km/h 27.4 km/h 49% 0 mm
18:24 17.2 °C 6.9 °C 1015.8 hPa WSW 11.3 km/h 27.4 km/h 51% 0 mm
18:29 17.2 °C 6.7 °C 1015.8 hPa WSW 11.3 km/h 25.7 km/h 50% 0 mm
18:34 17.1 °C 6.3 °C 1015.8 hPa West 11.3 km/h 27.4 km/h 49% 0 mm
18:39 17.1 °C 6.6 °C 1015.8 hPa WSW 8 km/h 22.5 km/h 50% 0 mm
18:44 17.1 °C 6.8 °C 1015.8 hPa WSW 11.3 km/h 25.7 km/h 51% 0 mm
18:49 17 °C 6.5 °C 1015.8 hPa WSW 12.9 km/h 30.6 km/h 50% 0 mm
18:54 17 °C 6.2 °C 1015.8 hPa West 6.4 km/h 24.1 km/h 49% 0 mm
18:59 16.9 °C 6.4 °C 1015.8 hPa SW 6.4 km/h 22.5 km/h 50% 0 mm
19:04 16.8 °C 6.8 °C 1015.5 hPa West 9.7 km/h 25.7 km/h 52% 0 mm
19:09 16.7 °C 7.1 °C 1015.8 hPa SW 6.4 km/h 17.7 km/h 53% 0 mm
19:14 16.4 °C 7.1 °C 1015.8 hPa WSW 11.3 km/h 20.9 km/h 54% 0 mm
19:19 16.3 °C 7.2 °C 1015.5 hPa WSW 9.7 km/h 22.5 km/h 55% 0 mm
19:24 16.1 °C 7.6 °C 1015.5 hPa WSW 9.7 km/h 22.5 km/h 57% 0 mm
19:29 16 °C 7.7 °C 1015.5 hPa WSW 8 km/h 20.9 km/h 58% 0 mm
19:34 15.9 °C 7.9 °C 1015.8 hPa WSW 20.9 km/h 20.9 km/h 59% 0 mm
19:39 15.7 °C 8 °C 1015.8 hPa WSW 16.1 km/h 27.4 km/h 60% 0 mm
19:44 15.6 °C 8.1 °C 1015.8 hPa WSW 11.3 km/h 27.4 km/h 61% 0 mm
19:49 15.4 °C 8.4 °C 1015.5 hPa WSW 9.7 km/h 19.3 km/h 63% 0 mm
19:54 15.5 °C 8.5 °C 1015.5 hPa WSW 8 km/h 16.1 km/h 63% 0 mm
19:59 15.4 °C 8.7 °C 1015.8 hPa WSW 8 km/h 17.7 km/h 64% 0 mm
20:04 15.4 °C 8.8 °C 1015.8 hPa WSW 8 km/h 17.7 km/h 65% 0 mm
20:09 15.3 °C 9 °C 1015.5 hPa WNW 4.8 km/h 17.7 km/h 66% 0 mm
20:14 15.2 °C 9.1 °C 1015.8 hPa SW 8 km/h 14.5 km/h 67% 0 mm
20:19 15.2 °C 9.3 °C 1015.5 hPa WSW 8 km/h 16.1 km/h 68% 0 mm
20:24 15.1 °C 9.4 °C 1015.5 hPa West 6.4 km/h 19.3 km/h 69% 0 mm
20:29 14.9 °C 9.5 °C 1015.5 hPa WNW 8 km/h 16.1 km/h 70% 0 mm
20:34 14.8 °C 9.4 °C 1015.5 hPa WSW 4.8 km/h 16.1 km/h 70% 0 mm
20:39 14.8 °C 9.6 °C 1015.5 hPa SW 4.8 km/h 11.3 km/h 71% 0 mm
20:44 14.8 °C 9.6 °C 1015.5 hPa WSW 6.4 km/h 16.1 km/h 71% 0 mm
20:49 14.8 °C 9.8 °C 1015.5 hPa WSW 6.4 km/h 16.1 km/h 72% 0 mm
20:54 14.7 °C 9.7 °C 1015.5 hPa WSW 4.8 km/h 12.9 km/h 72% 0 mm
20:59 14.6 °C 9.8 °C 1015.5 hPa WSW 4.8 km/h 12.9 km/h 73% 0 mm
21:04 14.6 °C 9.8 °C 1015.5 hPa WSW 4.8 km/h 8 km/h 73% 0 mm
21:09 14.4 °C 9.6 °C 1015.5 hPa WSW 3.2 km/h 8 km/h 73% 0 mm
21:14 14.3 °C 9.7 °C 1015.5 hPa WSW 1.6 km/h 4.8 km/h 74% 0 mm
21:19 14.1 °C 9.6 °C 1015.5 hPa WSW 1.6 km/h 4.8 km/h 74% 0 mm
21:24 14 °C 9.6 °C 1015.5 hPa Calm   4.8 km/h 75% 0 mm
21:29 14 °C 9.6 °C 1015.5 hPa SW 3.2 km/h 6.4 km/h 75% 0 mm
21:34 13.9 °C 9.6 °C 1015.5 hPa WSW 1.6 km/h 4.8 km/h 75% 0 mm
21:39 13.9 °C 9.6 °C 1015.5 hPa WSW 3.2 km/h 6.4 km/h 75% 0 mm
21:44 14 °C 9.6 °C 1015.5 hPa WNW 1.6 km/h 6.4 km/h 75% 0 mm
21:49 14.1 °C 9.7 °C 1015.8 hPa WNW 3.2 km/h 4.8 km/h 75% 0 mm
21:54 14.1 °C 9.7 °C 1015.8 hPa WNW 1.6 km/h 4.8 km/h 75% 0 mm
21:59 13.9 °C 9.6 °C 1015.5 hPa WNW 1.6 km/h 4.8 km/h 75% 0 mm
22:04 13.8 °C 9.4 °C 1015.5 hPa Calm   3.2 km/h 75% 0 mm
22:09 13.7 °C 9.3 °C 1015.5 hPa Calm   3.2 km/h 75% 0 mm
22:14 13.6 °C 9.2 °C 1015.5 hPa Calm     75% 0 mm
22:19 13.4 °C 9.3 °C 1015.5 hPa Calm     76% 0 mm
22:24 13.3 °C 9.2 °C 1015.8 hPa Calm     76% 0 mm
22:29 13.2 °C 9.1 °C 1015.8 hPa Calm     76% 0 mm
22:34 13.2 °C 8.8 °C 1015.8 hPa Calm     75% 0 mm
22:39 13 °C 8.9 °C 1015.8 hPa Calm     76% 0 mm
22:44 12.9 °C 8.8 °C 1015.5 hPa Calm     76% 0 mm
22:49 12.8 °C 8.7 °C 1015.8 hPa Calm     76% 0 mm
22:54 12.8 °C 8.7 °C 1015.8 hPa Calm     76% 0 mm
22:59 12.7 °C 8.8 °C 1015.5 hPa Calm     77% 0 mm
23:04 12.7 °C 8.8 °C 1015.5 hPa Calm     77% 0 mm
23:09 12.7 °C 8.7 °C 1015.5 hPa Calm     77% 0 mm
23:14 12.7 °C 8.7 °C 1015.5 hPa Calm     77% 0 mm
23:19 12.6 °C 8.6 °C 1015.5 hPa Calm     77% 0 mm
23:24 12.5 °C 8.6 °C 1015.5 hPa Calm     77% 0 mm
23:29 12.6 °C 8.6 °C 1015.5 hPa Calm     77% 0 mm
23:34 12.4 °C 8.5 °C 1015.5 hPa Calm     77% 0 mm
23:39 12.4 °C 8.5 °C 1015.5 hPa Calm     77% 0 mm
23:44 12.4 °C 8.3 °C 1015.5 hPa Calm     76% 0 mm
23:49 12.3 °C 8.2 °C 1015.5 hPa Calm     76% 0 mm
23:54 12.2 °C 8.3 °C 1015.5 hPa Calm     77% 0 mm
23:59 12.1 °C 8.2 °C 1015.5 hPa Calm     77% 0 mm
Buffalo, New York, USA
Compliments of Weather Underground - 2.5 mb